sensor_id;sensor_type;location;lat;lon;timestamp;P1;durP1;ratioP1;P2;durP2;ratioP2
50585;SDS011;36542;51.700;8.846;2023-12-20T00:00:59;59.10;;;20.40;;
50585;SDS011;36542;51.700;8.846;2023-12-20T00:03:25;60.73;;;21.30;;
50585;SDS011;36542;51.700;8.846;2023-12-20T00:05:50;51.70;;;21.93;;
50585;SDS011;36542;51.700;8.846;2023-12-20T00:08:16;56.77;;;21.30;;
50585;SDS011;36542;51.700;8.846;2023-12-20T00:10:42;62.70;;;21.50;;
50585;SDS011;36542;51.700;8.846;2023-12-20T00:13:08;57.87;;;21.50;;
50585;SDS011;36542;51.700;8.846;2023-12-20T00:15:34;62.40;;;22.87;;
50585;SDS011;36542;51.700;8.846;2023-12-20T00:17:59;52.03;;;20.43;;
50585;SDS011;36542;51.700;8.846;2023-12-20T00:20:25;54.07;;;19.67;;
50585;SDS011;36542;51.700;8.846;2023-12-20T00:22:51;25.17;;;11.00;;
50585;SDS011;36542;51.700;8.846;2023-12-20T00:25:17;22.77;;;10.17;;
50585;SDS011;36542;51.700;8.846;2023-12-20T00:27:43;21.20;;;10.13;;
50585;SDS011;36542;51.700;8.846;2023-12-20T00:30:08;27.03;;;11.87;;
50585;SDS011;36542;51.700;8.846;2023-12-20T00:32:35;26.60;;;11.43;;
50585;SDS011;36542;51.700;8.846;2023-12-20T00:35:00;32.93;;;12.53;;
50585;SDS011;36542;51.700;8.846;2023-12-20T00:37:26;21.97;;;11.33;;
50585;SDS011;36542;51.700;8.846;2023-12-20T00:39:51;23.73;;;11.97;;
50585;SDS011;36542;51.700;8.846;2023-12-20T00:42:17;28.47;;;12.30;;
50585;SDS011;36542;51.700;8.846;2023-12-20T00:44:42;24.93;;;12.53;;
50585;SDS011;36542;51.700;8.846;2023-12-20T00:47:08;33.00;;;14.83;;
50585;SDS011;36542;51.700;8.846;2023-12-20T00:49:33;26.33;;;13.13;;
50585;SDS011;36542;51.700;8.846;2023-12-20T00:51:59;26.20;;;12.80;;
50585;SDS011;36542;51.700;8.846;2023-12-20T00:54:24;26.73;;;12.83;;
50585;SDS011;36542;51.700;8.846;2023-12-20T00:56:50;23.93;;;12.07;;
50585;SDS011;36542;51.700;8.846;2023-12-20T00:59:16;22.20;;;10.73;;
50585;SDS011;36542;51.700;8.846;2023-12-20T01:01:42;18.37;;;10.00;;
50585;SDS011;36542;51.700;8.846;2023-12-20T01:04:07;19.10;;;9.10;;
50585;SDS011;36542;51.700;8.846;2023-12-20T01:06:33;15.53;;;8.00;;
50585;SDS011;36542;51.700;8.846;2023-12-20T01:08:58;16.37;;;7.43;;
50585;SDS011;36542;51.700;8.846;2023-12-20T01:11:24;11.20;;;6.43;;
50585;SDS011;36542;51.700;8.846;2023-12-20T01:13:49;12.67;;;6.07;;
50585;SDS011;36542;51.700;8.846;2023-12-20T01:16:15;13.00;;;5.90;;
50585;SDS011;36542;51.700;8.846;2023-12-20T01:18:40;11.07;;;6.60;;
50585;SDS011;36542;51.700;8.846;2023-12-20T01:21:06;9.90;;;5.73;;
50585;SDS011;36542;51.700;8.846;2023-12-20T01:23:32;12.03;;;6.27;;
50585;SDS011;36542;51.700;8.846;2023-12-20T01:25:57;13.47;;;5.73;;
50585;SDS011;36542;51.700;8.846;2023-12-20T01:28:24;14.20;;;6.67;;
50585;SDS011;36542;51.700;8.846;2023-12-20T01:30:50;18.43;;;6.70;;
50585;SDS011;36542;51.700;8.846;2023-12-20T01:33:16;22.33;;;7.37;;
50585;SDS011;36542;51.700;8.846;2023-12-20T01:35:41;22.97;;;8.07;;
50585;SDS011;36542;51.700;8.846;2023-12-20T01:38:06;13.70;;;6.53;;
50585;SDS011;36542;51.700;8.846;2023-12-20T01:40:32;17.53;;;6.90;;
50585;SDS011;36542;51.700;8.846;2023-12-20T01:43:01;14.10;;;6.57;;
50585;SDS011;36542;51.700;8.846;2023-12-20T01:45:30;10.63;;;6.00;;
50585;SDS011;36542;51.700;8.846;2023-12-20T01:47:55;15.50;;;6.50;;
50585;SDS011;36542;51.700;8.846;2023-12-20T01:50:22;14.90;;;6.67;;
50585;SDS011;36542;51.700;8.846;2023-12-20T01:52:48;16.43;;;6.83;;
50585;SDS011;36542;51.700;8.846;2023-12-20T01:55:17;20.37;;;7.33;;
50585;SDS011;36542;51.700;8.846;2023-12-20T01:57:44;17.23;;;7.63;;
50585;SDS011;36542;51.700;8.846;2023-12-20T02:00:11;16.63;;;7.63;;
50585;SDS011;36542;51.700;8.846;2023-12-20T02:02:38;18.10;;;8.03;;
50585;SDS011;36542;51.700;8.846;2023-12-20T02:05:07;18.43;;;8.53;;
50585;SDS011;36542;51.700;8.846;2023-12-20T02:07:34;24.23;;;9.50;;
50585;SDS011;36542;51.700;8.846;2023-12-20T02:10:00;21.93;;;9.50;;
50585;SDS011;36542;51.700;8.846;2023-12-20T02:12:26;24.40;;;9.30;;
50585;SDS011;36542;51.700;8.846;2023-12-20T02:14:51;20.93;;;9.07;;
50585;SDS011;36542;51.700;8.846;2023-12-20T02:17:17;18.67;;;8.07;;
50585;SDS011;36542;51.700;8.846;2023-12-20T02:19:43;20.80;;;8.17;;
50585;SDS011;36542;51.700;8.846;2023-12-20T02:22:11;18.40;;;8.27;;
50585;SDS011;36542;51.700;8.846;2023-12-20T02:24:37;17.17;;;8.03;;
50585;SDS011;36542;51.700;8.846;2023-12-20T02:27:04;26.50;;;8.57;;
50585;SDS011;36542;51.700;8.846;2023-12-20T02:29:31;27.77;;;8.60;;
50585;SDS011;36542;51.700;8.846;2023-12-20T02:32:00;20.17;;;8.50;;
50585;SDS011;36542;51.700;8.846;2023-12-20T02:34:26;19.23;;;8.27;;
50585;SDS011;36542;51.700;8.846;2023-12-20T02:36:52;14.87;;;7.20;;
50585;SDS011;36542;51.700;8.846;2023-12-20T02:39:19;18.37;;;8.40;;
50585;SDS011;36542;51.700;8.846;2023-12-20T02:41:45;20.87;;;8.60;;
50585;SDS011;36542;51.700;8.846;2023-12-20T02:44:11;20.67;;;7.93;;
50585;SDS011;36542;51.700;8.846;2023-12-20T02:46:37;18.17;;;9.03;;
50585;SDS011;36542;51.700;8.846;2023-12-20T02:49:02;21.90;;;8.57;;
50585;SDS011;36542;51.700;8.846;2023-12-20T02:51:28;26.47;;;9.80;;
50585;SDS011;36542;51.700;8.846;2023-12-20T02:53:53;20.40;;;9.97;;
50585;SDS011;36542;51.700;8.846;2023-12-20T02:56:19;29.43;;;9.20;;
50585;SDS011;36542;51.700;8.846;2023-12-20T02:58:44;21.20;;;8.07;;
50585;SDS011;36542;51.700;8.846;2023-12-20T03:01:09;23.47;;;8.30;;
50585;SDS011;36542;51.700;8.846;2023-12-20T03:03:35;19.10;;;7.83;;
50585;SDS011;36542;51.700;8.846;2023-12-20T03:06:00;21.80;;;7.80;;
50585;SDS011;36542;51.700;8.846;2023-12-20T03:08:26;21.80;;;8.40;;
50585;SDS011;36542;51.700;8.846;2023-12-20T03:10:51;19.57;;;8.00;;
50585;SDS011;36542;51.700;8.846;2023-12-20T03:13:18;22.63;;;8.90;;
50585;SDS011;36542;51.700;8.846;2023-12-20T03:15:44;18.73;;;8.13;;
50585;SDS011;36542;51.700;8.846;2023-12-20T03:18:10;22.93;;;8.67;;
50585;SDS011;36542;51.700;8.846;2023-12-20T03:20:35;25.27;;;9.60;;
50585;SDS011;36542;51.700;8.846;2023-12-20T03:23:01;24.90;;;9.37;;
50585;SDS011;36542;51.700;8.846;2023-12-20T03:25:26;23.50;;;10.97;;
50585;SDS011;36542;51.700;8.846;2023-12-20T03:27:52;25.70;;;9.90;;
50585;SDS011;36542;51.700;8.846;2023-12-20T03:30:18;21.07;;;11.03;;
50585;SDS011;36542;51.700;8.846;2023-12-20T03:32:43;30.00;;;11.40;;
50585;SDS011;36542;51.700;8.846;2023-12-20T03:35:09;25.13;;;10.20;;
50585;SDS011;36542;51.700;8.846;2023-12-20T03:37:35;22.77;;;10.77;;
50585;SDS011;36542;51.700;8.846;2023-12-20T03:40:01;20.47;;;10.57;;
50585;SDS011;36542;51.700;8.846;2023-12-20T03:42:26;21.90;;;10.13;;
50585;SDS011;36542;51.700;8.846;2023-12-20T03:44:52;28.20;;;11.40;;
50585;SDS011;36542;51.700;8.846;2023-12-20T03:47:17;26.73;;;9.93;;
50585;SDS011;36542;51.700;8.846;2023-12-20T03:49:43;24.93;;;10.23;;
50585;SDS011;36542;51.700;8.846;2023-12-20T03:52:08;21.47;;;10.67;;
50585;SDS011;36542;51.700;8.846;2023-12-20T03:54:37;21.70;;;10.03;;
50585;SDS011;36542;51.700;8.846;2023-12-20T03:57:02;22.13;;;9.13;;
50585;SDS011;36542;51.700;8.846;2023-12-20T03:59:28;18.50;;;9.40;;
50585;SDS011;36542;51.700;8.846;2023-12-20T04:01:54;20.70;;;9.37;;
50585;SDS011;36542;51.700;8.846;2023-12-20T04:04:20;21.27;;;9.20;;
50585;SDS011;36542;51.700;8.846;2023-12-20T04:06:45;16.70;;;9.27;;
50585;SDS011;36542;51.700;8.846;2023-12-20T04:09:11;22.40;;;10.40;;
50585;SDS011;36542;51.700;8.846;2023-12-20T04:11:37;22.07;;;9.43;;
50585;SDS011;36542;51.700;8.846;2023-12-20T04:14:02;18.97;;;8.43;;
50585;SDS011;36542;51.700;8.846;2023-12-20T04:16:29;22.67;;;9.67;;
50585;SDS011;36542;51.700;8.846;2023-12-20T04:18:55;19.93;;;9.00;;
50585;SDS011;36542;51.700;8.846;2023-12-20T04:21:20;24.93;;;9.90;;
50585;SDS011;36542;51.700;8.846;2023-12-20T04:23:46;22.27;;;10.63;;
50585;SDS011;36542;51.700;8.846;2023-12-20T04:26:11;25.27;;;11.37;;
50585;SDS011;36542;51.700;8.846;2023-12-20T04:28:37;25.47;;;9.83;;
50585;SDS011;36542;51.700;8.846;2023-12-20T04:31:02;23.67;;;10.07;;
50585;SDS011;36542;51.700;8.846;2023-12-20T04:33:28;24.00;;;9.13;;
50585;SDS011;36542;51.700;8.846;2023-12-20T04:35:53;18.27;;;8.77;;
50585;SDS011;36542;51.700;8.846;2023-12-20T04:38:19;16.43;;;8.90;;
50585;SDS011;36542;51.700;8.846;2023-12-20T04:40:44;24.93;;;9.30;;
50585;SDS011;36542;51.700;8.846;2023-12-20T04:43:10;19.97;;;8.93;;
50585;SDS011;36542;51.700;8.846;2023-12-20T04:45:35;17.93;;;7.50;;
50585;SDS011;36542;51.700;8.846;2023-12-20T04:48:01;22.30;;;8.67;;
50585;SDS011;36542;51.700;8.846;2023-12-20T04:50:27;24.20;;;8.23;;
50585;SDS011;36542;51.700;8.846;2023-12-20T04:52:53;25.00;;;9.20;;
50585;SDS011;36542;51.700;8.846;2023-12-20T04:55:18;19.27;;;7.37;;
50585;SDS011;36542;51.700;8.846;2023-12-20T04:57:44;29.77;;;8.50;;
50585;SDS011;36542;51.700;8.846;2023-12-20T05:00:09;15.90;;;7.67;;
50585;SDS011;36542;51.700;8.846;2023-12-20T05:02:36;17.33;;;8.40;;
50585;SDS011;36542;51.700;8.846;2023-12-20T05:05:01;24.97;;;8.27;;
50585;SDS011;36542;51.700;8.846;2023-12-20T05:07:27;18.63;;;7.87;;
50585;SDS011;36542;51.700;8.846;2023-12-20T05:09:53;17.97;;;9.20;;
50585;SDS011;36542;51.700;8.846;2023-12-20T05:12:18;19.50;;;7.77;;
50585;SDS011;36542;51.700;8.846;2023-12-20T05:14:44;18.90;;;8.13;;
50585;SDS011;36542;51.700;8.846;2023-12-20T05:17:09;25.13;;;8.50;;
50585;SDS011;36542;51.700;8.846;2023-12-20T05:19:35;27.97;;;9.90;;
50585;SDS011;36542;51.700;8.846;2023-12-20T05:22:03;20.77;;;8.30;;
50585;SDS011;36542;51.700;8.846;2023-12-20T05:24:29;20.77;;;8.43;;
50585;SDS011;36542;51.700;8.846;2023-12-20T05:26:54;25.30;;;7.43;;
50585;SDS011;36542;51.700;8.846;2023-12-20T05:29:20;20.17;;;8.07;;
50585;SDS011;36542;51.700;8.846;2023-12-20T05:31:45;24.17;;;9.13;;
50585;SDS011;36542;51.700;8.846;2023-12-20T05:34:11;33.13;;;9.23;;
50585;SDS011;36542;51.700;8.846;2023-12-20T05:36:36;18.47;;;9.13;;
50585;SDS011;36542;51.700;8.846;2023-12-20T05:39:03;23.50;;;8.90;;
50585;SDS011;36542;51.700;8.846;2023-12-20T05:41:29;22.27;;;8.43;;
50585;SDS011;36542;51.700;8.846;2023-12-20T05:43:55;25.63;;;10.27;;
50585;SDS011;36542;51.700;8.846;2023-12-20T05:46:22;21.87;;;9.80;;
50585;SDS011;36542;51.700;8.846;2023-12-20T05:48:48;29.30;;;10.40;;
50585;SDS011;36542;51.700;8.846;2023-12-20T05:51:14;20.40;;;10.10;;
50585;SDS011;36542;51.700;8.846;2023-12-20T05:53:39;24.77;;;11.40;;
50585;SDS011;36542;51.700;8.846;2023-12-20T05:56:05;27.77;;;9.50;;
50585;SDS011;36542;51.700;8.846;2023-12-20T05:58:31;23.33;;;10.37;;
50585;SDS011;36542;51.700;8.846;2023-12-20T06:00:57;23.37;;;9.17;;
50585;SDS011;36542;51.700;8.846;2023-12-20T06:03:23;22.27;;;10.00;;
50585;SDS011;36542;51.700;8.846;2023-12-20T06:05:48;30.10;;;10.73;;
50585;SDS011;36542;51.700;8.846;2023-12-20T06:08:14;25.60;;;10.30;;
50585;SDS011;36542;51.700;8.846;2023-12-20T06:10:39;34.07;;;10.97;;
50585;SDS011;36542;51.700;8.846;2023-12-20T06:13:05;22.97;;;10.43;;
50585;SDS011;36542;51.700;8.846;2023-12-20T06:15:31;20.07;;;10.80;;
50585;SDS011;36542;51.700;8.846;2023-12-20T06:17:57;31.47;;;11.50;;
50585;SDS011;36542;51.700;8.846;2023-12-20T06:20:23;31.67;;;11.40;;
50585;SDS011;36542;51.700;8.846;2023-12-20T06:22:48;24.57;;;12.27;;
50585;SDS011;36542;51.700;8.846;2023-12-20T06:25:14;26.57;;;11.63;;
50585;SDS011;36542;51.700;8.846;2023-12-20T06:27:39;28.73;;;11.30;;
50585;SDS011;36542;51.700;8.846;2023-12-20T06:30:06;27.10;;;12.60;;
50585;SDS011;36542;51.700;8.846;2023-12-20T06:32:34;29.87;;;13.00;;
50585;SDS011;36542;51.700;8.846;2023-12-20T06:34:59;28.17;;;13.43;;
50585;SDS011;36542;51.700;8.846;2023-12-20T06:37:25;27.53;;;13.00;;
50585;SDS011;36542;51.700;8.846;2023-12-20T06:39:50;25.00;;;12.43;;
50585;SDS011;36542;51.700;8.846;2023-12-20T06:42:16;27.97;;;13.67;;
50585;SDS011;36542;51.700;8.846;2023-12-20T06:44:41;26.93;;;12.30;;
50585;SDS011;36542;51.700;8.846;2023-12-20T06:47:07;30.77;;;13.83;;
50585;SDS011;36542;51.700;8.846;2023-12-20T06:49:32;35.47;;;13.83;;
50585;SDS011;36542;51.700;8.846;2023-12-20T06:51:58;32.80;;;13.20;;
50585;SDS011;36542;51.700;8.846;2023-12-20T06:54:23;27.40;;;12.40;;
50585;SDS011;36542;51.700;8.846;2023-12-20T06:56:49;28.07;;;12.63;;
50585;SDS011;36542;51.700;8.846;2023-12-20T06:59:14;31.27;;;14.10;;
50585;SDS011;36542;51.700;8.846;2023-12-20T07:01:40;28.47;;;13.43;;
50585;SDS011;36542;51.700;8.846;2023-12-20T07:04:06;28.43;;;12.87;;
50585;SDS011;36542;51.700;8.846;2023-12-20T07:06:32;38.53;;;14.30;;
50585;SDS011;36542;51.700;8.846;2023-12-20T07:08:57;35.13;;;13.10;;
50585;SDS011;36542;51.700;8.846;2023-12-20T07:11:23;37.37;;;13.50;;
50585;SDS011;36542;51.700;8.846;2023-12-20T07:13:49;30.90;;;13.00;;
50585;SDS011;36542;51.700;8.846;2023-12-20T07:16:14;28.67;;;13.47;;
50585;SDS011;36542;51.700;8.846;2023-12-20T07:18:40;35.10;;;14.07;;
50585;SDS011;36542;51.700;8.846;2023-12-20T07:21:05;43.43;;;13.17;;
50585;SDS011;36542;51.700;8.846;2023-12-20T07:23:32;34.87;;;12.47;;
50585;SDS011;36542;51.700;8.846;2023-12-20T07:25:58;32.03;;;13.37;;
50585;SDS011;36542;51.700;8.846;2023-12-20T07:28:24;39.00;;;13.97;;
50585;SDS011;36542;51.700;8.846;2023-12-20T07:30:49;32.43;;;13.83;;
50585;SDS011;36542;51.700;8.846;2023-12-20T07:33:15;31.50;;;14.43;;
50585;SDS011;36542;51.700;8.846;2023-12-20T07:35:40;42.07;;;13.87;;
50585;SDS011;36542;51.700;8.846;2023-12-20T07:38:06;35.03;;;15.40;;
50585;SDS011;36542;51.700;8.846;2023-12-20T07:40:31;35.03;;;13.27;;
50585;SDS011;36542;51.700;8.846;2023-12-20T07:42:57;32.67;;;13.00;;
50585;SDS011;36542;51.700;8.846;2023-12-20T07:45:23;25.37;;;12.70;;
50585;SDS011;36542;51.700;8.846;2023-12-20T07:47:48;34.43;;;12.43;;
50585;SDS011;36542;51.700;8.846;2023-12-20T07:50:15;28.50;;;12.37;;
50585;SDS011;36542;51.700;8.846;2023-12-20T07:52:40;28.57;;;12.03;;
50585;SDS011;36542;51.700;8.846;2023-12-20T07:55:06;24.23;;;11.47;;
50585;SDS011;36542;51.700;8.846;2023-12-20T07:57:32;33.63;;;13.20;;
50585;SDS011;36542;51.700;8.846;2023-12-20T07:59:57;30.37;;;12.50;;
50585;SDS011;36542;51.700;8.846;2023-12-20T08:02:23;29.63;;;11.97;;
50585;SDS011;36542;51.700;8.846;2023-12-20T08:04:48;25.00;;;12.00;;
50585;SDS011;36542;51.700;8.846;2023-12-20T08:07:14;26.73;;;11.33;;
50585;SDS011;36542;51.700;8.846;2023-12-20T08:09:39;31.20;;;12.10;;
50585;SDS011;36542;51.700;8.846;2023-12-20T08:12:05;32.07;;;11.47;;
50585;SDS011;36542;51.700;8.846;2023-12-20T08:14:30;22.20;;;10.93;;
50585;SDS011;36542;51.700;8.846;2023-12-20T08:16:56;26.40;;;12.47;;
50585;SDS011;36542;51.700;8.846;2023-12-20T08:19:22;27.43;;;10.63;;
50585;SDS011;36542;51.700;8.846;2023-12-20T08:21:47;27.50;;;10.50;;
50585;SDS011;36542;51.700;8.846;2023-12-20T08:24:13;30.27;;;10.63;;
50585;SDS011;36542;51.700;8.846;2023-12-20T08:26:38;23.27;;;11.10;;
50585;SDS011;36542;51.700;8.846;2023-12-20T08:29:03;24.67;;;10.20;;
50585;SDS011;36542;51.700;8.846;2023-12-20T08:31:29;26.70;;;10.90;;
50585;SDS011;36542;51.700;8.846;2023-12-20T08:33:54;29.00;;;10.77;;
50585;SDS011;36542;51.700;8.846;2023-12-20T08:36:20;19.23;;;10.17;;
50585;SDS011;36542;51.700;8.846;2023-12-20T08:38:47;22.23;;;9.90;;
50585;SDS011;36542;51.700;8.846;2023-12-20T08:41:13;20.73;;;10.20;;
50585;SDS011;36542;51.700;8.846;2023-12-20T08:43:38;26.67;;;10.10;;
50585;SDS011;36542;51.700;8.846;2023-12-20T08:46:07;21.03;;;10.33;;
50585;SDS011;36542;51.700;8.846;2023-12-20T08:48:34;30.67;;;10.20;;
50585;SDS011;36542;51.700;8.846;2023-12-20T08:51:00;31.53;;;11.50;;
50585;SDS011;36542;51.700;8.846;2023-12-20T08:53:25;27.03;;;11.20;;
50585;SDS011;36542;51.700;8.846;2023-12-20T08:55:51;21.10;;;11.33;;
50585;SDS011;36542;51.700;8.846;2023-12-20T08:58:17;19.97;;;9.60;;
50585;SDS011;36542;51.700;8.846;2023-12-20T09:00:42;26.07;;;10.93;;
50585;SDS011;36542;51.700;8.846;2023-12-20T09:03:08;21.10;;;9.77;;
50585;SDS011;36542;51.700;8.846;2023-12-20T09:05:34;22.27;;;9.27;;
50585;SDS011;36542;51.700;8.846;2023-12-20T09:08:01;18.70;;;9.80;;
50585;SDS011;36542;51.700;8.846;2023-12-20T09:10:27;21.27;;;8.73;;
50585;SDS011;36542;51.700;8.846;2023-12-20T09:12:53;19.40;;;8.47;;
50585;SDS011;36542;51.700;8.846;2023-12-20T09:15:26;20.27;;;8.80;;
50585;SDS011;36542;51.700;8.846;2023-12-20T09:17:52;20.70;;;8.50;;
50585;SDS011;36542;51.700;8.846;2023-12-20T09:20:18;26.63;;;9.00;;
50585;SDS011;36542;51.700;8.846;2023-12-20T09:22:44;24.57;;;9.10;;
50585;SDS011;36542;51.700;8.846;2023-12-20T09:25:10;13.57;;;7.67;;
50585;SDS011;36542;51.700;8.846;2023-12-20T09:27:36;22.10;;;9.80;;
50585;SDS011;36542;51.700;8.846;2023-12-20T09:30:02;21.63;;;8.87;;
50585;SDS011;36542;51.700;8.846;2023-12-20T09:32:29;16.43;;;8.77;;
50585;SDS011;36542;51.700;8.846;2023-12-20T09:34:54;18.57;;;8.50;;
50585;SDS011;36542;51.700;8.846;2023-12-20T09:37:20;18.73;;;9.33;;
50585;SDS011;36542;51.700;8.846;2023-12-20T09:39:45;21.47;;;8.63;;
50585;SDS011;36542;51.700;8.846;2023-12-20T09:42:11;22.87;;;9.50;;
50585;SDS011;36542;51.700;8.846;2023-12-20T09:44:40;22.77;;;9.93;;
50585;SDS011;36542;51.700;8.846;2023-12-20T09:47:07;23.57;;;10.67;;
50585;SDS011;36542;51.700;8.846;2023-12-20T09:49:33;25.17;;;10.17;;
50585;SDS011;36542;51.700;8.846;2023-12-20T09:52:00;21.53;;;10.47;;
50585;SDS011;36542;51.700;8.846;2023-12-20T09:54:26;13.13;;;9.53;;
50585;SDS011;36542;51.700;8.846;2023-12-20T09:56:53;18.87;;;9.20;;
50585;SDS011;36542;51.700;8.846;2023-12-20T09:59:19;17.67;;;10.53;;
50585;SDS011;36542;51.700;8.846;2023-12-20T10:01:45;19.37;;;10.43;;
50585;SDS011;36542;51.700;8.846;2023-12-20T10:04:11;22.60;;;10.50;;
50585;SDS011;36542;51.700;8.846;2023-12-20T10:06:38;20.13;;;10.10;;
50585;SDS011;36542;51.700;8.846;2023-12-20T10:09:05;19.33;;;9.83;;
50585;SDS011;36542;51.700;8.846;2023-12-20T10:11:30;18.97;;;10.07;;
50585;SDS011;36542;51.700;8.846;2023-12-20T10:13:59;19.53;;;10.07;;
50585;SDS011;36542;51.700;8.846;2023-12-20T10:16:26;23.10;;;9.67;;
50585;SDS011;36542;51.700;8.846;2023-12-20T10:18:52;23.80;;;10.00;;
50585;SDS011;36542;51.700;8.846;2023-12-20T10:21:18;27.67;;;10.77;;
50585;SDS011;36542;51.700;8.846;2023-12-20T10:23:44;25.37;;;10.70;;
50585;SDS011;36542;51.700;8.846;2023-12-20T10:26:10;19.00;;;10.03;;
50585;SDS011;36542;51.700;8.846;2023-12-20T10:28:49;20.70;;;9.50;;
50585;SDS011;36542;51.700;8.846;2023-12-20T10:31:26;17.07;;;9.93;;
50585;SDS011;36542;51.700;8.846;2023-12-20T10:33:59;24.37;;;9.43;;
50585;SDS011;36542;51.700;8.846;2023-12-20T10:36:28;22.70;;;10.30;;
50585;SDS011;36542;51.700;8.846;2023-12-20T10:38:55;18.63;;;10.80;;
50585;SDS011;36542;51.700;8.846;2023-12-20T10:41:32;18.93;;;9.30;;
50585;SDS011;36542;51.700;8.846;2023-12-20T10:44:01;26.63;;;10.30;;
50585;SDS011;36542;51.700;8.846;2023-12-20T10:46:28;18.27;;;9.33;;
50585;SDS011;36542;51.700;8.846;2023-12-20T10:48:54;25.60;;;10.10;;
50585;SDS011;36542;51.700;8.846;2023-12-20T10:51:21;21.03;;;10.47;;
50585;SDS011;36542;51.700;8.846;2023-12-20T10:53:49;23.37;;;9.73;;
50585;SDS011;36542;51.700;8.846;2023-12-20T10:56:16;18.77;;;9.63;;
50585;SDS011;36542;51.700;8.846;2023-12-20T10:58:46;23.27;;;10.77;;
50585;SDS011;36542;51.700;8.846;2023-12-20T11:01:14;21.87;;;10.03;;
50585;SDS011;36542;51.700;8.846;2023-12-20T11:03:46;21.97;;;9.43;;
50585;SDS011;36542;51.700;8.846;2023-12-20T11:11:57;25.53;;;10.43;;
50585;SDS011;36542;51.700;8.846;2023-12-20T11:14:39;20.77;;;8.57;;
50585;SDS011;36542;51.700;8.846;2023-12-20T11:17:13;26.10;;;11.03;;
50585;SDS011;36542;51.700;8.846;2023-12-20T11:22:21;27.47;;;11.50;;
50585;SDS011;36542;51.700;8.846;2023-12-20T11:24:47;25.10;;;10.33;;
50585;SDS011;36542;51.700;8.846;2023-12-20T11:27:14;26.67;;;11.60;;
50585;SDS011;36542;51.700;8.846;2023-12-20T11:29:39;25.90;;;10.90;;
50585;SDS011;36542;51.700;8.846;2023-12-20T11:34:53;21.33;;;9.73;;
50585;SDS011;36542;51.700;8.846;2023-12-20T11:37:29;25.03;;;11.30;;
50585;SDS011;36542;51.700;8.846;2023-12-20T11:40:08;19.17;;;11.37;;
50585;SDS011;36542;51.700;8.846;2023-12-20T11:42:43;18.17;;;10.27;;
50585;SDS011;36542;51.700;8.846;2023-12-20T11:45:10;26.07;;;11.33;;
50585;SDS011;36542;51.700;8.846;2023-12-20T11:47:39;22.63;;;11.83;;
50585;SDS011;36542;51.700;8.846;2023-12-20T11:50:05;27.93;;;11.03;;
50585;SDS011;36542;51.700;8.846;2023-12-20T11:52:31;23.07;;;10.97;;
50585;SDS011;36542;51.700;8.846;2023-12-20T11:54:57;18.43;;;10.80;;
50585;SDS011;36542;51.700;8.846;2023-12-20T11:57:22;25.13;;;11.17;;
50585;SDS011;36542;51.700;8.846;2023-12-20T11:59:48;25.13;;;11.47;;
50585;SDS011;36542;51.700;8.846;2023-12-20T12:02:14;20.70;;;11.03;;
50585;SDS011;36542;51.700;8.846;2023-12-20T12:04:43;23.57;;;10.57;;
50585;SDS011;36542;51.700;8.846;2023-12-20T12:07:08;18.60;;;11.33;;
50585;SDS011;36542;51.700;8.846;2023-12-20T12:09:34;16.50;;;11.00;;
50585;SDS011;36542;51.700;8.846;2023-12-20T12:12:00;22.63;;;11.90;;
50585;SDS011;36542;51.700;8.846;2023-12-20T12:14:26;30.70;;;12.47;;
50585;SDS011;36542;51.700;8.846;2023-12-20T12:16:52;24.67;;;12.40;;
50585;SDS011;36542;51.700;8.846;2023-12-20T12:19:21;26.00;;;12.07;;
50585;SDS011;36542;51.700;8.846;2023-12-20T12:21:48;26.97;;;13.20;;
50585;SDS011;36542;51.700;8.846;2023-12-20T12:24:14;29.77;;;12.47;;
50585;SDS011;36542;51.700;8.846;2023-12-20T12:26:40;18.77;;;12.30;;
50585;SDS011;36542;51.700;8.846;2023-12-20T12:29:08;28.33;;;13.27;;
50585;SDS011;36542;51.700;8.846;2023-12-20T12:31:34;26.83;;;13.17;;
50585;SDS011;36542;51.700;8.846;2023-12-20T12:34:00;26.23;;;13.77;;
50585;SDS011;36542;51.700;8.846;2023-12-20T12:36:26;22.53;;;13.07;;
50585;SDS011;36542;51.700;8.846;2023-12-20T12:38:55;23.50;;;12.10;;
50585;SDS011;36542;51.700;8.846;2023-12-20T12:41:22;21.47;;;12.03;;
50585;SDS011;36542;51.700;8.846;2023-12-20T12:43:47;22.67;;;12.63;;
50585;SDS011;36542;51.700;8.846;2023-12-20T12:46:13;22.37;;;12.70;;
50585;SDS011;36542;51.700;8.846;2023-12-20T12:48:39;23.83;;;12.53;;
50585;SDS011;36542;51.700;8.846;2023-12-20T12:51:04;19.43;;;12.53;;
50585;SDS011;36542;51.700;8.846;2023-12-20T12:53:32;23.27;;;12.80;;
50585;SDS011;36542;51.700;8.846;2023-12-20T12:55:57;25.37;;;12.93;;
50585;SDS011;36542;51.700;8.846;2023-12-20T12:58:23;23.97;;;12.70;;
50585;SDS011;36542;51.700;8.846;2023-12-20T13:00:50;29.87;;;12.97;;
50585;SDS011;36542;51.700;8.846;2023-12-20T13:03:15;24.33;;;11.43;;
50585;SDS011;36542;51.700;8.846;2023-12-20T13:05:41;22.30;;;11.30;;
50585;SDS011;36542;51.700;8.846;2023-12-20T13:08:07;22.20;;;12.23;;
50585;SDS011;36542;51.700;8.846;2023-12-20T13:10:32;19.67;;;11.43;;
50585;SDS011;36542;51.700;8.846;2023-12-20T13:12:58;23.63;;;11.70;;
50585;SDS011;36542;51.700;8.846;2023-12-20T13:15:23;15.83;;;10.77;;
50585;SDS011;36542;51.700;8.846;2023-12-20T13:17:49;20.17;;;11.17;;
50585;SDS011;36542;51.700;8.846;2023-12-20T13:20:14;20.80;;;10.70;;
50585;SDS011;36542;51.700;8.846;2023-12-20T13:22:40;23.83;;;11.27;;
50585;SDS011;36542;51.700;8.846;2023-12-20T13:25:05;22.23;;;10.37;;
50585;SDS011;36542;51.700;8.846;2023-12-20T13:27:31;17.37;;;9.43;;
50585;SDS011;36542;51.700;8.846;2023-12-20T13:29:58;18.30;;;9.67;;
50585;SDS011;36542;51.700;8.846;2023-12-20T13:32:23;19.83;;;10.00;;
50585;SDS011;36542;51.700;8.846;2023-12-20T13:34:49;17.87;;;8.87;;
50585;SDS011;36542;51.700;8.846;2023-12-20T13:37:15;21.60;;;9.03;;
50585;SDS011;36542;51.700;8.846;2023-12-20T13:39:41;15.93;;;9.13;;
50585;SDS011;36542;51.700;8.846;2023-12-20T13:42:06;17.87;;;9.03;;
50585;SDS011;36542;51.700;8.846;2023-12-20T13:44:32;22.07;;;9.83;;
50585;SDS011;36542;51.700;8.846;2023-12-20T13:46:58;16.60;;;9.13;;
50585;SDS011;36542;51.700;8.846;2023-12-20T13:49:23;22.13;;;9.27;;
50585;SDS011;36542;51.700;8.846;2023-12-20T13:51:50;17.13;;;9.50;;
50585;SDS011;36542;51.700;8.846;2023-12-20T13:54:16;12.47;;;8.63;;
50585;SDS011;36542;51.700;8.846;2023-12-20T13:56:44;16.00;;;8.43;;
50585;SDS011;36542;51.700;8.846;2023-12-20T13:59:10;16.07;;;9.47;;
50585;SDS011;36542;51.700;8.846;2023-12-20T14:01:37;17.60;;;9.93;;
50585;SDS011;36542;51.700;8.846;2023-12-20T14:04:03;23.93;;;10.80;;
50585;SDS011;36542;51.700;8.846;2023-12-20T14:06:28;17.57;;;9.87;;
50585;SDS011;36542;51.700;8.846;2023-12-20T14:08:54;18.30;;;9.47;;
50585;SDS011;36542;51.700;8.846;2023-12-20T14:11:20;16.90;;;9.70;;
50585;SDS011;36542;51.700;8.846;2023-12-20T14:13:45;20.13;;;10.57;;
50585;SDS011;36542;51.700;8.846;2023-12-20T14:16:11;21.10;;;10.40;;
50585;SDS011;36542;51.700;8.846;2023-12-20T14:18:37;20.77;;;11.50;;
50585;SDS011;36542;51.700;8.846;2023-12-20T14:21:03;22.03;;;10.93;;
50585;SDS011;36542;51.700;8.846;2023-12-20T14:23:30;19.40;;;12.17;;
50585;SDS011;36542;51.700;8.846;2023-12-20T14:25:56;19.03;;;10.70;;
50585;SDS011;36542;51.700;8.846;2023-12-20T14:28:23;18.33;;;10.90;;
50585;SDS011;36542;51.700;8.846;2023-12-20T14:30:48;19.33;;;10.53;;
50585;SDS011;36542;51.700;8.846;2023-12-20T14:33:14;18.37;;;11.57;;